createdAt,value
2023-04-18T00:00:31.220Z,17.20
2023-04-18T00:02:59.187Z,20.77
2023-04-18T00:05:27.972Z,18.60
2023-04-18T00:07:55.253Z,22.60
2023-04-18T00:10:22.549Z,18.77
2023-04-18T00:12:49.446Z,19.73
2023-04-18T00:15:16.402Z,21.80
2023-04-18T00:17:43.610Z,21.07
2023-04-18T00:20:11.334Z,21.17
2023-04-18T00:22:42.641Z,20.13
2023-04-18T00:25:11.154Z,20.00
2023-04-18T00:27:39.146Z,17.37
2023-04-18T00:30:06.881Z,17.17
2023-04-18T00:32:39.457Z,19.17
2023-04-18T00:35:06.795Z,18.23
2023-04-18T00:37:34.093Z,19.43
2023-04-18T00:40:01.062Z,18.57
2023-04-18T00:42:29.477Z,18.53
2023-04-18T00:44:56.413Z,20.00
2023-04-18T00:47:23.541Z,20.40
2023-04-18T00:49:50.625Z,18.77
2023-04-18T00:52:18.851Z,18.10
2023-04-18T00:54:47.363Z,16.17
2023-04-18T00:57:14.636Z,19.30
2023-04-18T00:59:42.412Z,17.93
2023-04-18T01:02:09.411Z,18.40
2023-04-18T01:04:37.361Z,17.10
2023-04-18T01:07:04.831Z,17.20
2023-04-18T01:09:31.834Z,18.17
2023-04-18T01:11:58.772Z,17.43
2023-04-18T01:14:25.828Z,22.40
2023-04-18T01:16:53.285Z,19.87
2023-04-18T01:19:20.173Z,16.37
2023-04-18T01:21:47.347Z,18.70
2023-04-18T01:24:16.171Z,18.07
2023-04-18T01:26:47.767Z,17.03
2023-04-18T01:29:15.337Z,20.53
2023-04-18T01:31:42.322Z,17.90
2023-04-18T01:34:09.598Z,19.60
2023-04-18T01:36:39.070Z,20.97
2023-04-18T01:39:07.147Z,21.47
2023-04-18T01:41:34.167Z,19.17
2023-04-18T01:44:01.679Z,17.50
2023-04-18T01:46:29.083Z,20.43
2023-04-18T01:48:57.273Z,20.67
2023-04-18T01:51:24.234Z,18.03
2023-04-18T01:53:54.313Z,20.57
2023-04-18T01:56:21.313Z,22.03
2023-04-18T01:58:48.284Z,33.10
2023-04-18T02:01:15.413Z,21.27
2023-04-18T02:03:42.542Z,24.63
2023-04-18T02:06:10.173Z,21.60
2023-04-18T02:08:37.178Z,23.07
2023-04-18T02:11:06.661Z,25.87
2023-04-18T02:13:33.698Z,21.60
2023-04-18T02:16:00.916Z,23.10
2023-04-18T02:18:47.781Z,20.07
2023-04-18T02:21:14.607Z,21.67
2023-04-18T02:23:41.601Z,21.07
2023-04-18T02:26:08.542Z,25.03
2023-04-18T02:28:38.964Z,27.60
2023-04-18T02:31:06.431Z,27.90
2023-04-18T02:33:35.001Z,26.43
2023-04-18T02:36:01.953Z,26.17
2023-04-18T02:38:28.896Z,29.43
2023-04-18T02:40:56.139Z,25.10
2023-04-18T02:43:23.231Z,28.50
2023-04-18T02:45:50.717Z,27.93
2023-04-18T02:48:17.807Z,27.20
2023-04-18T02:50:46.059Z,25.60
2023-04-18T02:53:13.440Z,28.03
2023-04-18T02:55:52.308Z,26.77
2023-04-18T02:58:21.225Z,28.00
2023-04-18T03:01:06.858Z,25.47
2023-04-18T03:04:03.311Z,31.40
2023-04-18T03:06:40.285Z,27.43
2023-04-18T03:09:07.276Z,23.17
2023-04-18T03:11:37.338Z,23.40
2023-04-18T03:14:05.241Z,27.57
2023-04-18T03:16:48.966Z,26.10
2023-04-18T03:19:21.596Z,35.73
2023-04-18T03:21:49.879Z,46.83
2023-04-18T03:24:17.300Z,38.77
2023-04-18T03:26:48.740Z,46.83
2023-04-18T03:29:18.109Z,28.97
2023-04-18T03:31:46.725Z,35.23
2023-04-18T03:34:13.878Z,30.40
2023-04-18T03:36:41.290Z,26.87
2023-04-18T03:39:08.966Z,26.83
2023-04-18T03:41:35.970Z,27.23
2023-04-18T03:44:03.998Z,29.43
2023-04-18T03:46:35.157Z,27.77
2023-04-18T03:49:03.271Z,27.77
2023-04-18T03:51:41.724Z,27.80
2023-04-18T03:54:08.822Z,28.83
2023-04-18T03:56:36.115Z,33.90
2023-04-18T03:59:03.133Z,29.47
2023-04-18T04:01:30.791Z,30.40
2023-04-18T04:03:57.858Z,27.67
2023-04-18T04:06:26.172Z,28.13
2023-04-18T04:08:53.365Z,30.30
2023-04-18T04:11:24.348Z,26.00
2023-04-18T04:13:51.723Z,25.87
2023-04-18T04:16:23.117Z,25.37
2023-04-18T04:18:52.429Z,24.03
2023-04-18T04:21:24.081Z,26.80
2023-04-18T04:23:53.178Z,25.57
2023-04-18T04:26:35.696Z,24.27
2023-04-18T04:29:13.906Z,29.07
2023-04-18T04:31:42.648Z,24.27
2023-04-18T04:34:09.606Z,26.80
2023-04-18T04:36:36.732Z,27.30
2023-04-18T04:39:06.693Z,29.97
2023-04-18T04:41:47.228Z,29.70
2023-04-18T04:44:17.734Z,29.80
2023-04-18T04:46:44.977Z,32.50
2023-04-18T04:49:18.889Z,29.83
2023-04-18T04:51:45.815Z,26.83
2023-04-18T04:54:13.138Z,31.07
2023-04-18T04:56:40.955Z,32.43
2023-04-18T04:59:07.990Z,28.13
2023-04-18T05:01:39.635Z,29.90
2023-04-18T05:04:06.826Z,23.33
2023-04-18T05:06:34.012Z,19.23
2023-04-18T05:09:01.213Z,20.17
2023-04-18T05:11:28.386Z,19.50
2023-04-18T05:13:55.476Z,22.90
2023-04-18T05:16:22.659Z,20.17
2023-04-18T05:18:49.643Z,22.43
2023-04-18T05:21:16.676Z,21.03
2023-04-18T05:23:43.613Z,18.30
2023-04-18T05:26:10.698Z,21.80
2023-04-18T05:28:37.738Z,26.00
2023-04-18T05:31:04.780Z,19.13
2023-04-18T05:33:31.895Z,19.83
2023-04-18T05:35:59.213Z,19.13
2023-04-18T05:38:26.359Z,19.57
2023-04-18T05:40:56.043Z,19.57
2023-04-18T05:43:23.548Z,20.03
2023-04-18T05:45:52.516Z,30.03
2023-04-18T05:48:19.801Z,24.47
2023-04-18T05:50:46.895Z,23.83
2023-04-18T05:53:13.879Z,19.77
2023-04-18T05:55:41.008Z,21.90
2023-04-18T05:58:08.097Z,19.43
2023-04-18T06:00:35.229Z,17.70
2023-04-18T06:03:02.835Z,14.07
2023-04-18T06:05:30.623Z,16.57
2023-04-18T06:07:57.923Z,17.63
2023-04-18T06:10:24.917Z,17.07
2023-04-18T06:12:51.971Z,22.20
2023-04-18T06:15:19.129Z,17.93
2023-04-18T06:17:46.267Z,18.57
2023-04-18T06:20:13.593Z,16.67
2023-04-18T06:26:37.822Z,21.33
2023-04-18T06:29:04.773Z,23.93
2023-04-18T06:31:31.775Z,19.23
2023-04-18T06:33:58.833Z,23.30
2023-04-18T06:36:27.579Z,19.57
2023-04-18T06:38:54.702Z,20.77
2023-04-18T06:41:21.633Z,17.07
2023-04-18T06:44:02.224Z,16.97
2023-04-18T06:46:31.394Z,20.53
2023-04-18T06:48:58.755Z,31.17
2023-04-18T06:51:25.910Z,16.17
2023-04-18T06:53:53.758Z,17.93
2023-04-18T06:56:21.429Z,21.43
2023-04-18T06:58:48.959Z,24.47
2023-04-18T07:01:16.154Z,22.17
2023-04-18T07:03:43.277Z,18.93
2023-04-18T07:06:11.113Z,19.07
2023-04-18T07:08:38.596Z,23.57
2023-04-18T07:11:06.655Z,23.60
2023-04-18T07:13:33.689Z,20.53
2023-04-18T07:16:01.591Z,22.27
2023-04-18T07:18:37.433Z,18.90
2023-04-18T07:21:09.127Z,23.03
2023-04-18T07:23:36.668Z,17.77
2023-04-18T07:26:05.785Z,23.50
2023-04-18T07:28:33.258Z,21.57
2023-04-18T07:31:01.302Z,23.50
2023-04-18T07:33:31.770Z,26.13
2023-04-18T07:36:01.748Z,21.23
2023-04-18T07:38:31.470Z,16.90
2023-04-18T07:41:02.179Z,16.57
2023-04-18T07:43:29.405Z,19.27
2023-04-18T07:45:56.538Z,32.77
2023-04-18T07:48:25.293Z,24.50
2023-04-18T07:50:53.404Z,20.90
2023-04-18T07:53:30.173Z,23.97
2023-04-18T07:56:08.586Z,30.20
2023-04-18T07:58:36.250Z,15.70
2023-04-18T08:01:03.369Z,14.53
2023-04-18T08:03:30.569Z,15.43
2023-04-18T08:05:57.696Z,18.23
2023-04-18T08:08:24.638Z,14.37
2023-04-18T08:10:51.609Z,17.80
2023-04-18T08:13:18.679Z,18.83
2023-04-18T08:15:46.616Z,21.97
2023-04-18T08:18:13.658Z,20.90
2023-04-18T08:20:41.032Z,20.73
2023-04-18T08:23:11.299Z,16.70
2023-04-18T08:25:39.987Z,14.43
2023-04-18T08:28:07.271Z,11.00
2023-04-18T08:30:34.524Z,15.83
2023-04-18T08:33:01.662Z,12.60
2023-04-18T08:35:28.918Z,11.47
2023-04-18T08:38:14.773Z,13.60
2023-04-18T08:40:43.574Z,13.03
2023-04-18T08:43:14.127Z,19.60
2023-04-18T08:45:45.843Z,11.47
2023-04-18T08:48:14.168Z,12.33
2023-04-18T08:50:42.706Z,21.13
2023-04-18T08:53:10.600Z,17.00
2023-04-18T08:55:37.759Z,11.87
2023-04-18T08:58:06.931Z,16.27
2023-04-18T09:00:34.313Z,12.77
2023-04-18T09:03:03.019Z,9.33
2023-04-18T09:05:30.305Z,10.10
2023-04-18T09:07:57.531Z,10.63
2023-04-18T09:10:28.714Z,14.20
2023-04-18T09:12:57.840Z,15.87
2023-04-18T09:15:29.481Z,9.27
2023-04-18T09:17:59.271Z,7.57
2023-04-18T09:20:41.553Z,11.47
2023-04-18T09:23:11.517Z,9.00
2023-04-18T09:25:44.438Z,12.47
2023-04-18T09:28:33.469Z,11.17
2023-04-18T09:31:04.459Z,12.27
2023-04-18T09:33:37.193Z,10.13
2023-04-18T09:36:19.308Z,12.50
2023-04-18T09:38:48.406Z,17.20
2023-04-18T09:41:19.944Z,16.60
2023-04-18T09:43:49.302Z,11.67
2023-04-18T09:46:17.900Z,13.97
2023-04-18T09:48:45.107Z,12.87
2023-04-18T09:51:15.749Z,12.73
2023-04-18T09:53:44.998Z,9.90
2023-04-18T09:56:24.560Z,14.97
2023-04-18T09:58:57.231Z,13.90
2023-04-18T10:01:28.504Z,14.37
2023-04-18T10:03:57.348Z,9.73
2023-04-18T10:06:27.418Z,12.20
2023-04-18T10:08:55.142Z,11.53
2023-04-18T10:11:24.296Z,9.77
2023-04-18T10:13:56.000Z,12.63
2023-04-18T10:16:23.871Z,11.90
2023-04-18T10:18:51.581Z,9.67
2023-04-18T10:21:18.472Z,9.57
2023-04-18T10:23:48.877Z,10.27
2023-04-18T10:26:16.416Z,9.57
2023-04-18T10:28:57.934Z,8.67
2023-04-18T10:31:27.225Z,10.93
2023-04-18T10:36:30.266Z,12.97
2023-04-18T10:39:05.127Z,14.80
2023-04-18T10:41:33.842Z,12.83
2023-04-18T10:44:11.497Z,14.33
2023-04-18T10:46:52.075Z,12.97
2023-04-18T10:49:20.165Z,10.90
2023-04-18T10:51:49.722Z,11.13
2023-04-18T10:54:22.621Z,12.70
2023-04-18T10:56:56.967Z,13.10
2023-04-18T10:59:26.713Z,14.67
2023-04-18T11:01:57.431Z,9.60
2023-04-18T11:04:25.810Z,11.87
2023-04-18T11:06:58.493Z,14.63
2023-04-18T11:09:25.751Z,13.23
2023-04-18T11:12:07.156Z,15.67
2023-04-18T11:14:45.634Z,13.90
2023-04-18T11:17:20.970Z,13.80
2023-04-18T11:19:48.666Z,13.77
2023-04-18T11:22:17.043Z,17.20
2023-04-18T11:24:44.798Z,14.93
2023-04-18T11:27:12.763Z,16.87
2023-04-18T11:29:39.756Z,18.33
2023-04-18T11:32:08.323Z,13.23
2023-04-18T11:34:38.407Z,13.30
2023-04-18T11:37:08.679Z,13.43
2023-04-18T11:39:41.190Z,9.37
2023-04-18T11:42:08.985Z,9.00
2023-04-18T11:44:39.720Z,9.63
2023-04-18T11:47:23.692Z,14.13
2023-04-18T11:50:01.012Z,12.33
2023-04-18T11:52:34.059Z,10.70
2023-04-18T11:55:25.007Z,9.83
2023-04-18T11:58:00.394Z,10.37
2023-04-18T12:00:31.783Z,9.73
2023-04-18T12:03:00.004Z,10.60
2023-04-18T12:05:29.394Z,11.80
2023-04-18T12:08:05.106Z,12.40
2023-04-18T12:10:32.472Z,10.00
2023-04-18T12:13:00.172Z,10.97
2023-04-18T12:15:29.273Z,15.30
2023-04-18T12:18:01.570Z,12.07
2023-04-18T12:20:52.622Z,11.67
2023-04-18T12:23:37.287Z,11.23
2023-04-18T12:26:14.580Z,12.97
2023-04-18T12:28:45.703Z,13.50
2023-04-18T12:31:13.057Z,16.77
2023-04-18T12:33:40.276Z,18.30
2023-04-18T12:36:11.197Z,11.77
2023-04-18T12:38:38.162Z,17.80
2023-04-18T12:41:05.660Z,12.03
2023-04-18T12:43:32.641Z,9.10
2023-04-18T12:46:00.058Z,10.77
2023-04-18T12:48:27.167Z,10.07
2023-04-18T12:50:54.336Z,17.27
2023-04-18T12:53:21.361Z,15.77
2023-04-18T12:55:48.278Z,13.37
2023-04-18T12:58:18.575Z,14.03
2023-04-18T13:00:45.989Z,15.03
2023-04-18T13:03:13.595Z,12.27
2023-04-18T13:05:41.156Z,6.83
2023-04-18T13:08:17.016Z,12.23
2023-04-18T13:10:48.047Z,9.30
2023-04-18T13:13:15.088Z,12.00
2023-04-18T13:15:42.580Z,8.47
2023-04-18T13:18:09.634Z,9.70
2023-04-18T13:20:36.763Z,9.33
2023-04-18T13:23:03.952Z,7.90
2023-04-18T13:25:31.388Z,7.83
2023-04-18T13:27:58.644Z,5.10
2023-04-18T13:30:26.060Z,6.30
2023-04-18T13:32:53.137Z,6.53
2023-04-18T13:35:20.282Z,4.10
2023-04-18T13:37:47.362Z,4.43
2023-04-18T13:46:36.663Z,3.80
2023-04-18T13:49:03.677Z,6.37
2023-04-18T13:51:31.137Z,4.57
2023-04-18T13:54:00.280Z,7.37
2023-04-18T13:56:28.215Z,10.87
2023-04-18T13:58:55.749Z,11.17
2023-04-18T14:01:22.812Z,12.23
2023-04-18T14:03:50.182Z,9.70
2023-04-18T14:06:17.494Z,6.93
2023-04-18T14:08:44.476Z,8.50
2023-04-18T14:11:11.452Z,5.33
2023-04-18T14:13:38.608Z,4.63
2023-04-18T14:16:06.736Z,5.87
2023-04-18T14:18:33.780Z,5.90
2023-04-18T14:21:01.170Z,4.97
2023-04-18T14:23:28.153Z,4.90
2023-04-18T14:25:55.652Z,4.33
2023-04-18T14:28:24.958Z,3.23
2023-04-18T14:30:52.210Z,5.47
2023-04-18T14:33:19.309Z,4.17
2023-04-18T14:35:46.272Z,5.00
2023-04-18T14:38:13.315Z,6.33
2023-04-18T14:40:40.303Z,3.70
2023-04-18T14:43:07.374Z,3.80
2023-04-18T14:45:34.494Z,4.57
2023-04-18T14:48:01.653Z,3.90
2023-04-18T14:50:28.745Z,4.03
2023-04-18T14:52:55.826Z,9.20
2023-04-18T14:55:22.804Z,4.50
2023-04-18T14:57:49.884Z,3.07
2023-04-18T15:00:17.172Z,3.03
2023-04-18T15:02:44.454Z,4.67
2023-04-18T15:05:12.620Z,5.43
2023-04-18T15:07:40.726Z,5.93
2023-04-18T15:10:08.525Z,5.83
2023-04-18T15:12:35.998Z,3.13
2023-04-18T15:15:03.216Z,3.70
2023-04-18T15:17:31.414Z,5.40
2023-04-18T15:20:01.472Z,5.17
2023-04-18T15:22:29.135Z,3.43
2023-04-18T15:24:59.681Z,7.97
2023-04-18T15:27:27.794Z,6.93
2023-04-18T15:29:58.146Z,5.80
2023-04-18T15:32:26.694Z,4.13
2023-04-18T15:34:53.881Z,1.90
2023-04-18T15:41:03.262Z,2.57
2023-04-18T15:43:30.672Z,2.20
2023-04-18T15:45:58.026Z,2.53
2023-04-18T15:48:25.288Z,3.37
2023-04-18T15:50:52.387Z,1.93
2023-04-18T15:53:19.714Z,3.03
2023-04-18T15:55:46.987Z,3.07
2023-04-18T15:58:14.026Z,3.40
2023-04-18T16:00:41.058Z,5.87
2023-04-18T16:03:10.480Z,3.40
2023-04-18T16:05:37.539Z,9.03
2023-04-18T16:08:04.653Z,3.97
2023-04-18T16:10:31.734Z,4.87
2023-04-18T16:12:59.512Z,5.33
2023-04-18T16:15:26.566Z,25.73
2023-04-18T16:17:53.786Z,18.13
2023-04-18T16:20:20.880Z,12.23
2023-04-18T16:22:48.228Z,10.20
2023-04-18T16:25:15.216Z,5.50
2023-04-18T16:27:43.499Z,12.20
2023-04-18T16:30:11.157Z,4.73
2023-04-18T16:32:38.596Z,3.40
2023-04-18T16:35:07.929Z,4.83
2023-04-18T16:37:34.877Z,4.00
2023-04-18T16:40:05.168Z,4.07
2023-04-18T16:42:32.510Z,4.40
2023-04-18T16:45:01.887Z,5.77
2023-04-18T16:47:32.473Z,7.00
2023-04-18T16:49:59.569Z,7.23
2023-04-18T16:52:27.158Z,8.20
2023-04-18T16:54:54.526Z,8.97
2023-04-18T16:57:21.406Z,6.77
2023-04-18T16:59:48.402Z,5.57
2023-04-18T17:02:15.704Z,5.40
2023-04-18T17:04:44.355Z,6.33
2023-04-18T17:07:11.557Z,6.73
2023-04-18T17:09:38.483Z,11.23
2023-04-18T17:12:05.964Z,7.63
2023-04-18T17:14:33.203Z,11.53
2023-04-18T17:17:00.196Z,11.83
2023-04-18T17:19:27.153Z,10.80
2023-04-18T17:21:54.130Z,8.77
2023-04-18T17:24:22.679Z,9.63
2023-04-18T17:26:49.973Z,5.50
2023-04-18T17:29:18.687Z,6.47
2023-04-18T17:31:45.640Z,4.83
2023-04-18T17:34:12.803Z,5.20
2023-04-18T17:36:39.870Z,6.00
2023-04-18T17:39:06.994Z,8.03
2023-04-18T17:41:38.593Z,8.63
2023-04-18T17:44:07.979Z,5.77
2023-04-18T17:46:35.248Z,4.93
2023-04-18T17:49:02.422Z,8.93
2023-04-18T17:51:29.357Z,9.90
2023-04-18T17:53:56.490Z,8.93
2023-04-18T17:56:23.528Z,9.70
2023-04-18T17:58:50.705Z,9.93
2023-04-18T18:01:19.830Z,8.80
2023-04-18T18:03:47.387Z,7.03
2023-04-18T18:06:15.567Z,7.30
2023-04-18T18:08:43.180Z,10.10
2023-04-18T18:11:10.786Z,9.13
2023-04-18T18:13:41.289Z,10.10
2023-04-18T18:16:08.974Z,10.17
2023-04-18T18:18:36.893Z,9.57
2023-04-18T18:21:03.979Z,7.60
2023-04-18T18:23:31.238Z,8.10
2023-04-18T18:25:58.498Z,7.23
2023-04-18T18:28:25.561Z,8.17
2023-04-18T18:30:53.529Z,11.10
2023-04-18T18:33:20.687Z,11.00
2023-04-18T18:35:47.657Z,13.10
2023-04-18T18:38:14.633Z,7.80
2023-04-18T18:40:41.706Z,6.50
2023-04-18T18:43:08.677Z,8.67
2023-04-18T18:45:35.695Z,7.83
2023-04-18T18:48:03.979Z,6.73
2023-04-18T18:50:31.256Z,6.67
2023-04-18T18:52:58.280Z,6.67
2023-04-18T18:55:25.293Z,6.60
2023-04-18T18:57:52.372Z,9.67
2023-04-18T19:00:19.469Z,9.67
2023-04-18T19:02:46.908Z,8.30
2023-04-18T19:05:14.120Z,9.37
2023-04-18T19:07:43.920Z,7.70
2023-04-18T19:10:11.194Z,7.47
2023-04-18T19:12:38.553Z,8.53
2023-04-18T19:15:06.492Z,7.93
2023-04-18T19:17:35.839Z,7.77
2023-04-18T19:20:03.827Z,6.57
2023-04-18T19:22:38.685Z,6.40
2023-04-18T19:25:06.695Z,6.03
2023-04-18T19:27:33.998Z,6.13
2023-04-18T19:30:00.952Z,6.57
2023-04-18T19:32:28.216Z,7.53
2023-04-18T19:34:55.226Z,8.47
2023-04-18T19:37:22.247Z,7.10
2023-04-18T19:39:49.573Z,9.07
2023-04-18T19:42:16.953Z,7.33
2023-04-18T19:44:44.356Z,9.87
2023-04-18T19:47:11.353Z,11.40
2023-04-18T19:49:38.592Z,9.63
2023-04-18T19:52:06.217Z,7.97
2023-04-18T19:54:33.574Z,10.10
2023-04-18T19:57:01.613Z,9.93
2023-04-18T19:59:28.999Z,10.27
2023-04-18T20:01:57.819Z,7.80
2023-04-18T20:04:26.805Z,7.03
2023-04-18T20:06:55.462Z,7.37
2023-04-18T20:09:22.469Z,6.53
2023-04-18T20:11:49.430Z,4.83
2023-04-18T20:14:16.467Z,5.90
2023-04-18T20:16:43.523Z,4.83
2023-04-18T20:19:12.594Z,5.13
2023-04-18T20:21:40.039Z,6.93
2023-04-18T20:24:09.791Z,5.57
2023-04-18T20:26:37.224Z,7.10
2023-04-18T20:29:04.263Z,5.57
2023-04-18T20:31:31.409Z,5.37
2023-04-18T20:33:58.515Z,6.37
2023-04-18T20:36:25.524Z,8.80
2023-04-18T20:38:52.581Z,7.97
2023-04-18T20:41:22.724Z,10.00
2023-04-18T20:43:50.693Z,10.00
2023-04-18T20:46:17.687Z,25.80
2023-04-18T20:48:44.642Z,8.80
2023-04-18T20:51:11.837Z,5.87
2023-04-18T20:53:38.823Z,5.40
2023-04-18T20:56:06.086Z,5.17
2023-04-18T20:58:33.059Z,5.70
2023-04-18T21:01:02.554Z,6.60
2023-04-18T21:03:29.800Z,6.27
2023-04-18T21:05:56.811Z,7.87
2023-04-18T21:08:23.883Z,8.43
2023-04-18T21:10:50.838Z,8.83
2023-04-18T21:13:17.867Z,8.30
2023-04-18T21:15:44.996Z,8.77
2023-04-18T21:18:11.977Z,16.77
2023-04-18T21:20:38.921Z,10.83
2023-04-18T21:23:06.146Z,10.43
2023-04-18T21:25:33.138Z,6.40
2023-04-18T21:28:00.364Z,5.93
2023-04-18T21:30:27.453Z,7.87
2023-04-18T21:32:54.487Z,7.73
2023-04-18T21:35:23.346Z,7.83
2023-04-18T21:37:51.744Z,6.10
2023-04-18T21:40:18.937Z,6.20
2023-04-18T21:42:46.872Z,4.37
2023-04-18T21:45:15.098Z,5.20
2023-04-18T21:47:42.130Z,4.93
2023-04-18T21:50:10.098Z,5.53
2023-04-18T21:52:37.484Z,5.90
2023-04-18T21:55:05.142Z,5.50
2023-04-18T21:57:33.555Z,4.97
2023-04-18T22:00:00.523Z,4.90
2023-04-18T22:02:27.962Z,4.93
2023-04-18T22:04:55.159Z,4.80
2023-04-18T22:07:24.678Z,4.83
2023-04-18T22:09:51.887Z,4.83
2023-04-18T22:12:19.038Z,6.20
2023-04-18T22:14:48.463Z,6.30
2023-04-18T22:17:15.974Z,5.83
2023-04-18T22:19:44.616Z,4.87
2023-04-18T22:22:12.273Z,7.00
2023-04-18T22:24:39.563Z,4.03
2023-04-18T22:27:07.006Z,3.27
2023-04-18T22:29:34.032Z,6.63
2023-04-18T22:32:00.997Z,4.90
2023-04-18T22:34:28.073Z,8.43
2023-04-18T22:36:55.087Z,3.83
2023-04-18T22:39:22.046Z,4.87
2023-04-18T22:41:49.044Z,2.73
2023-04-18T22:44:16.265Z,5.13
2023-04-18T22:46:43.586Z,3.80
2023-04-18T22:49:10.898Z,4.10
2023-04-18T22:51:38.265Z,3.87
2023-04-18T22:54:05.502Z,4.27
2023-04-18T22:56:32.529Z,4.70
2023-04-18T22:58:59.437Z,3.40
2023-04-18T23:01:26.353Z,4.97
2023-04-18T23:03:53.683Z,3.27
2023-04-18T23:06:21.074Z,2.27
2023-04-18T23:08:48.047Z,2.60
2023-04-18T23:11:15.878Z,3.70
2023-04-18T23:13:42.872Z,2.90
2023-04-18T23:16:09.800Z,3.13
2023-04-18T23:18:36.788Z,2.93
2023-04-18T23:21:03.969Z,2.70
2023-04-18T23:23:30.971Z,4.17
2023-04-18T23:25:58.078Z,3.73
2023-04-18T23:28:25.349Z,3.13
2023-04-18T23:30:52.698Z,2.77
2023-04-18T23:33:19.598Z,3.37
2023-04-18T23:35:46.602Z,2.33
2023-04-18T23:38:13.514Z,2.57
2023-04-18T23:40:40.502Z,2.63
2023-04-18T23:43:07.379Z,1.60
2023-04-18T23:45:34.353Z,3.27
2023-04-18T23:48:01.434Z,1.27
2023-04-18T23:50:28.523Z,2.57
2023-04-18T23:52:55.587Z,2.20
2023-04-18T23:55:22.542Z,2.37
2023-04-18T23:57:49.600Z,2.97
